createdAt,value
2022-10-10T00:01:32.083Z,3.60
2022-10-10T00:04:00.484Z,3.80
2022-10-10T00:06:33.109Z,3.67
2022-10-10T00:09:01.327Z,3.53
2022-10-10T00:11:28.165Z,4.20
2022-10-10T00:13:54.872Z,3.35
2022-10-10T00:16:21.646Z,3.85
2022-10-10T00:18:48.561Z,4.20
2022-10-10T00:21:15.725Z,3.70
2022-10-10T00:23:42.363Z,3.72
2022-10-10T00:26:10.131Z,3.33
2022-10-10T00:28:38.903Z,3.72
2022-10-10T00:31:09.649Z,3.60
2022-10-10T00:33:37.669Z,3.75
2022-10-10T00:36:05.361Z,3.58
2022-10-10T00:38:32.583Z,3.60
2022-10-10T00:41:01.366Z,4.38
2022-10-10T00:43:29.092Z,4.13
2022-10-10T00:45:56.297Z,3.35
2022-10-10T00:48:26.168Z,3.88
2022-10-10T00:51:09.463Z,4.43
2022-10-10T00:53:45.676Z,3.87
2022-10-10T00:56:15.182Z,3.33
2022-10-10T00:58:48.251Z,3.78
2022-10-10T01:01:14.943Z,3.45
2022-10-10T01:03:41.600Z,4.07
2022-10-10T01:06:09.060Z,3.60
2022-10-10T01:08:36.544Z,3.90
2022-10-10T01:11:18.205Z,4.25
2022-10-10T01:14:20.045Z,4.10
2022-10-10T01:16:58.727Z,3.80
2022-10-10T01:19:37.050Z,3.55
2022-10-10T01:22:48.036Z,3.65
2022-10-10T01:25:44.177Z,4.05
2022-10-10T01:28:43.854Z,3.45
2022-10-10T01:31:13.564Z,3.97
2022-10-10T01:34:05.019Z,3.75
2022-10-10T01:36:58.777Z,4.55
2022-10-10T01:40:01.851Z,4.10
2022-10-10T01:42:41.623Z,3.83
2022-10-10T01:45:08.804Z,4.13
2022-10-10T01:47:35.422Z,4.18
2022-10-10T01:50:07.818Z,4.07
2022-10-10T01:53:08.539Z,4.35
2022-10-10T01:55:55.619Z,4.18
2022-10-10T01:59:02.889Z,4.10
2022-10-10T02:01:35.305Z,3.25
2022-10-10T02:04:23.299Z,3.97
2022-10-10T02:06:55.425Z,3.88
2022-10-10T02:09:31.972Z,3.80
2022-10-10T02:12:00.116Z,3.80
2022-10-10T02:14:37.451Z,4.20
2022-10-10T02:17:07.914Z,3.85
2022-10-10T02:19:35.376Z,3.67
2022-10-10T02:22:05.114Z,4.05
2022-10-10T02:24:31.734Z,3.85
2022-10-10T02:27:07.958Z,4.47
2022-10-10T02:29:38.568Z,3.90
2022-10-10T02:32:31.602Z,4.85
2022-10-10T02:35:05.762Z,4.20
2022-10-10T02:37:33.415Z,4.35
2022-10-10T02:40:02.748Z,3.72
2022-10-10T02:42:30.261Z,4.13
2022-10-10T02:44:57.484Z,4.20
2022-10-10T02:47:24.178Z,4.40
2022-10-10T02:49:52.070Z,4.13
2022-10-10T02:52:19.022Z,4.28
2022-10-10T02:54:45.736Z,4.40
2022-10-10T02:57:12.428Z,3.97
2022-10-10T02:59:39.154Z,3.78
2022-10-10T03:02:06.354Z,4.22
2022-10-10T03:04:33.866Z,4.18
2022-10-10T03:07:00.510Z,4.20
2022-10-10T03:09:29.409Z,4.13
2022-10-10T03:11:56.091Z,4.40
2022-10-10T03:14:22.723Z,4.82
2022-10-10T03:16:49.365Z,4.05
2022-10-10T03:19:16.028Z,4.47
2022-10-10T03:21:42.761Z,3.92
2022-10-10T03:24:11.530Z,4.60
2022-10-10T03:26:40.450Z,4.13
2022-10-10T03:29:09.544Z,3.97
2022-10-10T03:31:36.152Z,3.58
2022-10-10T03:34:03.206Z,4.28
2022-10-10T03:36:31.269Z,4.40
2022-10-10T03:39:00.296Z,4.43
2022-10-10T03:41:29.070Z,4.15
2022-10-10T03:43:55.718Z,4.25
2022-10-10T03:46:22.332Z,4.28
2022-10-10T03:48:51.332Z,4.28
2022-10-10T03:51:18.057Z,4.00
2022-10-10T03:53:44.722Z,4.40
2022-10-10T03:56:11.835Z,3.83
2022-10-10T03:58:40.927Z,3.88
2022-10-10T04:01:10.086Z,3.95
2022-10-10T04:03:38.969Z,3.65
2022-10-10T04:06:08.392Z,3.75
2022-10-10T04:08:35.044Z,3.85
2022-10-10T04:11:01.708Z,3.55
2022-10-10T04:13:30.482Z,4.32
2022-10-10T04:15:57.458Z,4.25
2022-10-10T04:18:26.729Z,3.70
2022-10-10T04:20:58.227Z,3.85
2022-10-10T04:23:24.788Z,3.85
2022-10-10T04:25:52.775Z,4.60
2022-10-10T04:28:19.919Z,3.88
2022-10-10T04:30:47.101Z,4.00
2022-10-10T04:33:13.838Z,4.50
2022-10-10T04:35:40.806Z,4.07
2022-10-10T04:38:07.725Z,4.30
2022-10-10T04:40:37.918Z,4.50
2022-10-10T04:43:04.852Z,4.57
2022-10-10T04:45:37.362Z,4.15
2022-10-10T04:48:04.513Z,4.60
2022-10-10T04:50:31.523Z,4.43
2022-10-10T04:52:58.175Z,4.40
2022-10-10T04:55:26.994Z,4.65
2022-10-10T04:57:53.804Z,4.60
2022-10-10T05:00:23.000Z,4.80
2022-10-10T05:02:50.470Z,3.95
2022-10-10T05:05:17.363Z,4.90
2022-10-10T05:07:46.156Z,4.82
2022-10-10T05:10:12.795Z,5.07
2022-10-10T05:12:39.445Z,4.25
2022-10-10T05:15:06.729Z,4.30
2022-10-10T05:17:33.744Z,5.40
2022-10-10T05:20:00.407Z,4.13
2022-10-10T05:22:27.012Z,4.32
2022-10-10T05:24:53.809Z,4.25
2022-10-10T05:27:23.034Z,3.92
2022-10-10T05:29:52.076Z,4.78
2022-10-10T05:32:18.819Z,4.00
2022-10-10T05:34:47.577Z,4.68
2022-10-10T05:37:14.658Z,4.78
2022-10-10T05:39:41.342Z,4.28
2022-10-10T05:42:08.084Z,4.43
2022-10-10T05:44:37.084Z,3.85
2022-10-10T05:47:06.370Z,4.30
2022-10-10T05:49:32.990Z,4.85
2022-10-10T05:51:59.677Z,4.68
2022-10-10T05:54:26.288Z,4.60
2022-10-10T05:56:55.650Z,5.38
2022-10-10T05:59:22.429Z,6.07
2022-10-10T06:01:51.605Z,4.53
2022-10-10T06:04:21.484Z,4.55
2022-10-10T06:06:48.186Z,5.65
2022-10-10T06:09:14.833Z,5.38
2022-10-10T06:11:41.551Z,5.18
2022-10-10T06:14:08.865Z,5.88
2022-10-10T06:16:36.890Z,6.10
2022-10-10T06:19:06.354Z,5.43
2022-10-10T06:21:33.173Z,5.15
2022-10-10T06:24:00.089Z,5.88
2022-10-10T06:26:31.433Z,5.50
2022-10-10T06:28:58.088Z,6.32
2022-10-10T06:31:24.762Z,5.53
2022-10-10T06:33:53.203Z,5.50
2022-10-10T06:36:22.398Z,5.10
2022-10-10T06:38:49.071Z,5.55
2022-10-10T06:41:15.705Z,6.00
2022-10-10T06:43:42.503Z,6.00
2022-10-10T06:46:11.725Z,5.63
2022-10-10T06:48:38.374Z,5.80
2022-10-10T06:51:08.531Z,5.80
2022-10-10T06:53:35.997Z,5.40
2022-10-10T06:56:03.499Z,5.82
2022-10-10T06:58:30.297Z,5.32
2022-10-10T07:01:02.120Z,5.05
2022-10-10T07:03:30.703Z,5.85
2022-10-10T07:06:00.007Z,5.30
2022-10-10T07:08:27.422Z,5.78
2022-10-10T07:10:54.094Z,5.30
2022-10-10T07:13:22.974Z,5.50
2022-10-10T07:15:49.686Z,5.53
2022-10-10T07:18:18.062Z,5.75
2022-10-10T07:20:44.870Z,5.95
2022-10-10T07:23:14.670Z,5.78
2022-10-10T07:25:43.920Z,5.90
2022-10-10T07:28:13.306Z,5.93
2022-10-10T07:30:44.053Z,6.93
2022-10-10T07:33:14.909Z,6.18
2022-10-10T07:35:42.123Z,6.15
2022-10-10T07:38:13.137Z,5.88
2022-10-10T07:40:41.451Z,6.15
2022-10-10T07:43:08.161Z,6.75
2022-10-10T07:45:38.041Z,5.80
2022-10-10T07:48:07.541Z,5.85
2022-10-10T07:50:34.390Z,5.80
2022-10-10T07:53:07.059Z,5.88
2022-10-10T07:55:34.739Z,6.47
2022-10-10T07:58:03.683Z,6.20
2022-10-10T08:00:30.444Z,6.30
2022-10-10T08:02:58.429Z,6.03
2022-10-10T08:05:25.140Z,6.68
2022-10-10T08:07:52.042Z,6.38
2022-10-10T08:10:18.953Z,6.38
2022-10-10T08:12:45.598Z,6.10
2022-10-10T08:17:44.306Z,6.78
2022-10-10T08:20:10.987Z,6.50
2022-10-10T08:22:37.776Z,6.35
2022-10-10T08:25:04.758Z,6.18
2022-10-10T08:27:33.618Z,6.20
2022-10-10T08:30:00.205Z,6.18
2022-10-10T08:32:26.886Z,5.68
2022-10-10T08:34:53.878Z,5.05
2022-10-10T08:37:25.883Z,6.25
2022-10-10T08:39:56.756Z,5.43
2022-10-10T08:42:45.566Z,5.45
2022-10-10T08:45:21.671Z,5.72
2022-10-10T08:47:57.968Z,5.03
2022-10-10T08:50:29.317Z,5.47
2022-10-10T08:53:08.379Z,5.00
2022-10-10T08:55:38.571Z,5.00
2022-10-10T08:58:10.811Z,5.63
2022-10-10T09:01:02.188Z,5.05
2022-10-10T09:03:53.433Z,5.28
2022-10-10T09:06:47.474Z,5.05
2022-10-10T09:09:43.374Z,5.65
2022-10-10T09:12:16.469Z,4.85
2022-10-10T09:15:02.924Z,5.30
2022-10-10T09:18:04.014Z,4.82
2022-10-10T09:20:30.617Z,4.68
2022-10-10T09:23:29.667Z,4.75
2022-10-10T09:26:03.664Z,4.60
2022-10-10T09:28:45.398Z,5.05
2022-10-10T09:31:16.362Z,5.00
2022-10-10T09:33:59.594Z,5.03
2022-10-10T09:36:32.789Z,4.73
2022-10-10T09:39:12.982Z,5.25
2022-10-10T09:41:44.926Z,4.97
2022-10-10T09:44:21.358Z,5.05
2022-10-10T09:46:48.497Z,4.70
2022-10-10T09:49:20.110Z,4.50
2022-10-10T09:51:48.383Z,4.60
2022-10-10T09:54:17.953Z,4.28
2022-10-10T09:56:53.270Z,4.40
2022-10-10T09:59:41.811Z,4.07
2022-10-10T10:02:20.731Z,4.10
2022-10-10T10:04:52.529Z,3.60
2022-10-10T10:07:29.487Z,3.85
2022-10-10T10:10:01.768Z,3.83
2022-10-10T10:12:40.791Z,3.92
2022-10-10T10:15:22.781Z,3.47
2022-10-10T10:18:17.444Z,3.53
2022-10-10T10:20:52.699Z,3.78
2022-10-10T10:23:33.664Z,4.20
2022-10-10T10:26:06.516Z,3.80
2022-10-10T10:28:43.384Z,3.38
2022-10-10T10:31:42.646Z,3.67
2022-10-10T10:34:42.849Z,3.40
2022-10-10T10:37:21.069Z,2.70
2022-10-10T10:40:09.319Z,3.00
2022-10-10T10:42:53.974Z,2.63
2022-10-10T10:45:44.672Z,3.17
2022-10-10T10:48:39.023Z,3.03
2022-10-10T10:51:30.615Z,3.17
2022-10-10T10:54:39.453Z,3.00
2022-10-10T10:57:32.931Z,3.35
2022-10-10T11:01:23.405Z,3.15
2022-10-10T11:05:20.135Z,2.72
2022-10-10T11:06:27.537Z,3.28
2022-10-10T11:09:05.524Z,3.03
2022-10-10T11:12:04.538Z,3.15
2022-10-10T11:14:53.152Z,3.00
2022-10-10T11:17:37.157Z,2.85
2022-10-10T11:20:28.023Z,3.00
2022-10-10T11:23:23.488Z,2.70
2022-10-10T11:26:03.150Z,2.80
2022-10-10T11:28:33.947Z,2.92
2022-10-10T11:31:10.358Z,2.90
2022-10-10T11:33:45.524Z,2.70
2022-10-10T11:36:22.206Z,2.85
2022-10-10T11:39:15.454Z,2.70
2022-10-10T11:41:52.027Z,2.67
2022-10-10T11:44:28.048Z,2.50
2022-10-10T11:47:20.349Z,2.80
2022-10-10T11:50:15.589Z,2.55
2022-10-10T11:53:03.448Z,3.30
2022-10-10T11:55:55.063Z,3.17
2022-10-10T11:58:36.527Z,2.55
2022-10-10T12:01:20.975Z,2.65
2022-10-10T12:03:47.602Z,2.70
2022-10-10T12:06:27.891Z,3.50
2022-10-10T12:09:13.310Z,3.15
2022-10-10T12:11:42.945Z,2.83
2022-10-10T12:14:19.296Z,2.85
2022-10-10T12:16:46.838Z,3.03
2022-10-10T12:19:19.507Z,3.03
2022-10-10T12:21:58.086Z,2.70
2022-10-10T12:24:40.972Z,2.72
2022-10-10T12:27:25.554Z,3.03
2022-10-10T12:29:58.021Z,2.45
2022-10-10T12:32:39.989Z,3.13
2022-10-10T12:35:34.167Z,2.40
2022-10-10T12:38:20.401Z,3.20
2022-10-10T12:41:16.145Z,2.95
2022-10-10T12:43:47.921Z,2.80
2022-10-10T12:46:32.624Z,3.03
2022-10-10T12:49:27.176Z,2.80
2022-10-10T12:52:08.925Z,3.65
2022-10-10T12:54:45.449Z,3.17
2022-10-10T12:57:14.984Z,3.10
2022-10-10T12:59:44.721Z,3.53
2022-10-10T13:02:25.198Z,3.40
2022-10-10T13:04:56.142Z,3.05
2022-10-10T13:07:24.051Z,3.40
2022-10-10T13:09:53.320Z,3.42
2022-10-10T13:12:26.994Z,3.05
2022-10-10T13:14:54.321Z,3.45
2022-10-10T13:17:21.474Z,3.60
2022-10-10T13:19:48.347Z,3.47
2022-10-10T13:22:16.568Z,3.28
2022-10-10T13:24:44.695Z,3.03
2022-10-10T13:27:23.615Z,3.67
2022-10-10T13:29:51.577Z,3.13
2022-10-10T13:32:40.585Z,2.90
2022-10-10T13:35:33.449Z,3.40
2022-10-10T13:38:01.395Z,3.50
2022-10-10T13:40:31.508Z,3.38
2022-10-10T13:43:00.593Z,3.53
2022-10-10T13:45:32.885Z,2.80
2022-10-10T13:48:18.718Z,3.03
2022-10-10T13:50:47.068Z,3.30
2022-10-10T13:53:34.977Z,2.85
2022-10-10T13:56:27.948Z,3.35
2022-10-10T13:59:14.007Z,2.93
2022-10-10T14:01:49.509Z,2.83
2022-10-10T14:04:32.459Z,2.90
2022-10-10T14:07:04.383Z,3.40
2022-10-10T14:09:55.490Z,3.10
2022-10-10T14:12:30.571Z,3.42
2022-10-10T14:14:59.396Z,2.75
2022-10-10T14:17:27.845Z,3.13
2022-10-10T14:19:55.137Z,3.67
2022-10-10T14:22:25.003Z,3.13
2022-10-10T14:24:51.753Z,3.83
2022-10-10T14:27:26.594Z,3.60
2022-10-10T14:29:55.243Z,3.75
2022-10-10T14:32:22.590Z,3.20
2022-10-10T14:34:54.039Z,3.30
2022-10-10T14:37:26.721Z,3.22
2022-10-10T14:39:54.224Z,3.90
2022-10-10T14:42:22.328Z,3.22
2022-10-10T14:44:56.644Z,3.88
2022-10-10T14:47:24.916Z,3.88
2022-10-10T14:49:53.433Z,3.58
2022-10-10T14:52:20.418Z,3.10
2022-10-10T14:54:47.194Z,3.90
2022-10-10T14:57:14.314Z,3.28
2022-10-10T14:59:48.166Z,2.90
2022-10-10T15:02:21.347Z,3.53
2022-10-10T15:04:48.717Z,4.07
2022-10-10T15:07:17.960Z,3.10
2022-10-10T15:12:34.752Z,4.03
2022-10-10T15:15:01.529Z,3.55
2022-10-10T15:17:30.275Z,3.50
2022-10-10T15:19:59.397Z,3.13
2022-10-10T15:22:27.467Z,3.50
2022-10-10T15:24:56.309Z,3.53
2022-10-10T15:27:23.196Z,3.72
2022-10-10T15:29:49.887Z,3.53
2022-10-10T15:32:19.120Z,2.97
2022-10-10T15:34:49.032Z,3.13
2022-10-10T15:37:15.793Z,3.20
2022-10-10T15:39:44.698Z,3.20
2022-10-10T15:42:19.927Z,3.35
2022-10-10T15:44:49.511Z,3.42
2022-10-10T15:47:17.843Z,3.53
2022-10-10T15:49:44.697Z,3.33
2022-10-10T15:52:13.784Z,4.00
2022-10-10T15:54:40.791Z,3.33
2022-10-10T15:57:07.508Z,3.80
2022-10-10T15:59:35.171Z,4.05
2022-10-10T16:02:04.655Z,3.38
2022-10-10T16:04:31.505Z,3.55
2022-10-10T16:09:45.167Z,3.33
2022-10-10T16:12:14.360Z,4.10
2022-10-10T16:14:43.315Z,3.75
2022-10-10T16:17:10.318Z,4.03
2022-10-10T16:19:37.031Z,3.97
2022-10-10T16:22:06.288Z,3.17
2022-10-10T16:24:35.268Z,3.58
2022-10-10T16:27:02.081Z,2.88
2022-10-10T16:29:28.873Z,3.88
2022-10-10T16:31:55.804Z,4.40
2022-10-10T16:34:22.615Z,3.60
2022-10-10T16:36:49.363Z,3.70
2022-10-10T16:39:16.091Z,3.70
2022-10-10T16:41:47.994Z,3.95
2022-10-10T16:44:15.717Z,4.88
2022-10-10T16:46:45.222Z,4.28
2022-10-10T16:49:20.356Z,5.93
2022-10-10T16:51:50.168Z,4.25
2022-10-10T16:54:16.865Z,4.55
2022-10-10T16:56:45.657Z,5.40
2022-10-10T16:59:14.456Z,4.93
2022-10-10T17:01:41.192Z,4.15
2022-10-10T17:04:08.618Z,4.30
2022-10-10T17:06:37.761Z,4.70
2022-10-10T17:09:07.309Z,4.43
2022-10-10T17:11:34.616Z,4.47
2022-10-10T17:14:01.396Z,4.10
2022-10-10T17:17:06.877Z,4.88
2022-10-10T17:19:16.585Z,5.65
2022-10-10T17:21:43.328Z,5.60
2022-10-10T17:24:10.336Z,5.40
2022-10-10T17:26:37.291Z,4.20
2022-10-10T17:29:04.064Z,5.25
2022-10-10T17:31:30.888Z,5.20
2022-10-10T17:33:57.909Z,6.35
2022-10-10T17:36:26.290Z,6.65
2022-10-10T17:38:56.171Z,8.48
2022-10-10T17:41:23.695Z,9.48
2022-10-10T17:43:50.475Z,11.55
2022-10-10T17:46:34.175Z,9.05
2022-10-10T17:49:03.581Z,8.60
2022-10-10T17:51:30.391Z,8.23
2022-10-10T17:54:00.600Z,6.15
2022-10-10T17:56:30.466Z,7.20
2022-10-10T17:58:59.307Z,7.55
2022-10-10T18:01:26.342Z,8.05
2022-10-10T18:03:53.304Z,7.00
2022-10-10T18:06:22.180Z,6.82
2022-10-10T18:08:50.813Z,7.40
2022-10-10T18:11:23.225Z,6.63
2022-10-10T18:13:50.830Z,7.47
2022-10-10T18:16:22.675Z,6.75
2022-10-10T18:18:51.908Z,6.90
2022-10-10T18:21:21.619Z,7.45
2022-10-10T18:23:48.982Z,6.68
2022-10-10T18:26:23.638Z,7.15
2022-10-10T18:28:52.682Z,6.63
2022-10-10T18:31:23.232Z,6.80
2022-10-10T18:33:50.208Z,6.10
2022-10-10T18:36:20.111Z,6.13
2022-10-10T18:38:50.117Z,6.13
2022-10-10T18:41:20.036Z,6.38
2022-10-10T18:43:49.524Z,6.20
2022-10-10T18:46:19.265Z,4.38
2022-10-10T18:48:49.036Z,5.57
2022-10-10T18:51:29.418Z,5.20
2022-10-10T18:54:00.895Z,6.40
2022-10-10T18:56:28.483Z,5.60
2022-10-10T18:59:03.497Z,5.43
2022-10-10T19:01:33.248Z,4.55
2022-10-10T19:04:00.471Z,4.80
2022-10-10T19:06:27.314Z,4.47
2022-10-10T19:08:55.859Z,4.60
2022-10-10T19:11:27.225Z,4.55
2022-10-10T19:13:58.242Z,4.75
2022-10-10T19:16:30.907Z,4.38
2022-10-10T19:19:01.262Z,4.93
2022-10-10T19:21:30.802Z,4.57
2022-10-10T19:23:59.851Z,3.90
2022-10-10T19:26:27.564Z,5.05
2022-10-10T19:28:54.276Z,4.40
2022-10-10T19:31:21.457Z,4.15
2022-10-10T19:33:52.229Z,3.65
2022-10-10T19:36:19.163Z,4.30
2022-10-10T19:38:47.677Z,4.05
2022-10-10T19:41:14.808Z,4.45
2022-10-10T19:43:43.305Z,4.38
2022-10-10T19:46:13.141Z,4.10
2022-10-10T19:48:40.395Z,3.78
2022-10-10T19:51:13.168Z,3.85
2022-10-10T19:53:41.435Z,3.67
2022-10-10T19:56:22.349Z,3.95
2022-10-10T19:58:49.031Z,3.60
2022-10-10T20:01:17.804Z,3.80
2022-10-10T20:03:45.816Z,3.63
2022-10-10T20:06:12.552Z,4.28
2022-10-10T20:08:39.462Z,4.60
2022-10-10T20:11:08.543Z,3.60
2022-10-10T20:13:35.271Z,4.18
2022-10-10T20:16:09.103Z,3.80
2022-10-10T20:21:16.928Z,4.18
2022-10-10T20:23:47.092Z,4.70
2022-10-10T20:26:17.689Z,4.35
2022-10-10T20:28:45.794Z,5.18
2022-10-10T20:31:32.954Z,4.30
2022-10-10T20:34:01.627Z,4.22
2022-10-10T20:36:30.044Z,4.22
2022-10-10T20:39:02.629Z,4.35
2022-10-10T20:41:34.784Z,4.47
2022-10-10T20:44:03.390Z,4.50
2022-10-10T20:46:34.063Z,4.38
2022-10-10T20:49:02.759Z,4.68
2022-10-10T20:51:30.233Z,4.10
2022-10-10T20:54:00.951Z,4.50
2022-10-10T20:56:31.814Z,4.75
2022-10-10T20:58:59.205Z,4.88
2022-10-10T21:01:29.323Z,5.18
2022-10-10T21:04:00.789Z,4.22
2022-10-10T21:06:30.358Z,4.63
2022-10-10T21:09:00.081Z,4.65
2022-10-10T21:11:26.980Z,5.65
2022-10-10T21:13:56.587Z,5.05
2022-10-10T21:16:25.723Z,5.32
2022-10-10T21:18:58.007Z,5.43
2022-10-10T21:21:30.806Z,4.80
2022-10-10T21:23:57.856Z,7.93
2022-10-10T21:26:26.380Z,6.32
2022-10-10T21:28:56.965Z,5.25
2022-10-10T21:31:26.379Z,5.45
2022-10-10T21:33:58.250Z,5.43
2022-10-10T21:36:30.542Z,6.07
2022-10-10T21:39:00.429Z,6.22
2022-10-10T21:41:27.671Z,5.75
2022-10-10T21:43:59.559Z,6.13
2022-10-10T21:46:36.200Z,5.50
2022-10-10T21:49:06.393Z,5.13
2022-10-10T21:51:37.242Z,5.53
2022-10-10T21:54:07.426Z,6.03
2022-10-10T21:56:34.306Z,5.70
2022-10-10T21:59:01.752Z,5.45
2022-10-10T22:01:32.757Z,5.60
2022-10-10T22:04:00.402Z,5.22
2022-10-10T22:06:29.253Z,5.53
2022-10-10T22:08:59.223Z,4.82
2022-10-10T22:11:30.589Z,11.68
2022-10-10T22:13:57.352Z,5.57
2022-10-10T22:16:24.348Z,4.95
2022-10-10T22:18:55.243Z,5.45
2022-10-10T22:21:23.260Z,6.28
2022-10-10T22:23:51.543Z,6.88
2022-10-10T22:26:20.425Z,5.95
2022-10-10T22:28:49.428Z,5.72
2022-10-10T22:31:18.403Z,5.13
2022-10-10T22:33:45.204Z,5.63
2022-10-10T22:36:14.606Z,5.43
2022-10-10T22:38:45.134Z,5.20
2022-10-10T22:41:12.875Z,5.57
2022-10-10T22:43:39.797Z,4.72
2022-10-10T22:46:09.481Z,5.28
2022-10-10T22:48:39.210Z,4.80
2022-10-10T22:51:17.204Z,5.03
2022-10-10T22:53:45.778Z,4.45
2022-10-10T22:56:19.096Z,4.63
2022-10-10T22:58:49.615Z,4.60
2022-10-10T23:01:21.720Z,4.53
2022-10-10T23:03:48.790Z,5.15
2022-10-10T23:06:18.226Z,4.35
2022-10-10T23:08:44.847Z,4.18
2022-10-10T23:11:13.911Z,4.72
2022-10-10T23:13:40.766Z,4.22
2022-10-10T23:16:08.332Z,4.30
2022-10-10T23:18:35.402Z,4.10
2022-10-10T23:21:06.477Z,4.82
2022-10-10T23:23:33.272Z,5.25
2022-10-10T23:26:03.847Z,4.90
2022-10-10T23:28:30.803Z,4.90
2022-10-10T23:31:04.811Z,5.10
2022-10-10T23:33:36.627Z,5.00
2022-10-10T23:36:09.481Z,4.40
2022-10-10T23:38:37.246Z,4.22
2022-10-10T23:41:04.299Z,4.60
2022-10-10T23:43:35.871Z,5.72
2022-10-10T23:46:05.062Z,4.95
2022-10-10T23:48:34.205Z,4.57
2022-10-10T23:51:00.966Z,4.72
2022-10-10T23:53:27.601Z,4.43
2022-10-10T23:55:54.398Z,4.43
2022-10-10T23:58:21.086Z,4.68
